createdAt,value
2023-05-10T00:01:45.882Z,56.22
2023-05-10T00:11:46.368Z,56.55
2023-05-10T00:21:46.958Z,57.06
2023-05-10T00:31:47.536Z,57.39
2023-05-10T00:41:48.163Z,57.80
2023-05-10T00:51:48.650Z,58.34
2023-05-10T01:01:49.268Z,58.85
2023-05-10T01:11:49.787Z,59.39
2023-05-10T01:21:50.353Z,59.80
2023-05-10T01:31:50.913Z,60.44
2023-05-10T01:41:51.480Z,60.94
2023-05-10T01:51:52.142Z,60.97
2023-05-10T02:01:52.721Z,61.38
2023-05-10T02:11:53.246Z,62.13
2023-05-10T02:21:53.814Z,62.54
2023-05-10T02:31:54.360Z,62.54
2023-05-10T02:41:54.857Z,62.87
2023-05-10T02:51:55.338Z,62.98
2023-05-10T03:01:55.988Z,63.48
2023-05-10T03:11:56.483Z,63.21
2023-05-10T03:21:56.998Z,63.31
2023-05-10T03:31:57.483Z,63.21
2023-05-10T03:41:57.975Z,63.31
2023-05-10T03:51:58.440Z,63.21
2023-05-10T04:01:59.049Z,63.51
2023-05-10T04:11:59.486Z,63.10
2023-05-10T04:22:07.015Z,63.31
2023-05-10T04:32:00.460Z,62.90
2023-05-10T04:42:00.983Z,62.98
2023-05-10T04:52:01.518Z,57.01
2023-05-10T05:02:02.072Z,52.33
2023-05-10T05:12:02.659Z,49.42
2023-05-10T05:22:03.210Z,48.26
2023-05-10T05:32:03.826Z,48.08
2023-05-10T05:42:04.443Z,50.91
2023-05-10T05:52:04.909Z,52.79
2023-05-10T06:02:05.469Z,53.09
2023-05-10T06:12:05.923Z,52.89
2023-05-10T06:22:06.578Z,52.76
2023-05-10T06:32:07.047Z,51.70
2023-05-10T06:42:07.548Z,52.00
2023-05-10T06:52:08.042Z,51.70
2023-05-10T07:02:09.145Z,52.06
2023-05-10T07:12:11.111Z,51.22
2023-05-10T07:22:09.663Z,50.59
2023-05-10T07:32:10.194Z,50.46
2023-05-10T07:42:10.707Z,50.04
2023-05-10T07:52:11.328Z,49.81
2023-05-10T08:02:11.965Z,49.26
2023-05-10T08:12:12.419Z,49.18
2023-05-10T08:22:12.942Z,48.22
2023-05-10T08:32:13.454Z,47.50
2023-05-10T08:42:14.080Z,46.57
2023-05-10T08:52:21.545Z,45.42
2023-05-10T09:02:17.282Z,45.50
2023-05-10T09:12:15.723Z,44.27
2023-05-10T09:22:16.146Z,43.74
2023-05-10T09:32:16.617Z,43.82
2023-05-10T09:42:17.125Z,43.30
2023-05-10T09:52:17.613Z,42.27
2023-05-10T10:02:18.127Z,42.54
2023-05-10T10:12:18.679Z,41.63
2023-05-10T10:22:26.151Z,40.81
2023-05-10T10:32:19.617Z,40.39
2023-05-10T10:42:20.171Z,40.77
2023-05-10T10:52:20.646Z,40.65
2023-05-10T11:02:21.190Z,39.35
2023-05-10T11:12:21.614Z,40.03
2023-05-10T11:22:22.153Z,39.22
2023-05-10T11:32:22.686Z,39.22
2023-05-10T11:42:23.166Z,38.84
2023-05-10T11:52:23.625Z,38.18
2023-05-10T12:02:24.206Z,38.46
2023-05-10T12:12:24.728Z,36.82
2023-05-10T12:22:25.232Z,36.63
2023-05-10T12:32:25.754Z,35.93
2023-05-10T12:42:26.241Z,37.10
2023-05-10T12:52:26.723Z,34.89
2023-05-10T13:02:27.315Z,35.21
2023-05-10T13:12:27.787Z,33.50
2023-05-10T13:22:39.162Z,34.88
2023-05-10T13:32:30.179Z,34.68
2023-05-10T13:42:29.674Z,33.48
2023-05-10T13:52:30.186Z,33.98
2023-05-10T14:02:30.764Z,33.58
2023-05-10T14:12:31.273Z,33.18
2023-05-10T14:22:31.808Z,32.87
2023-05-10T14:32:32.305Z,32.78
2023-05-10T14:42:32.787Z,32.78
2023-05-10T14:52:34.345Z,33.30
2023-05-10T15:02:34.060Z,32.18
2023-05-10T15:12:34.377Z,32.98
2023-05-10T15:22:34.916Z,33.08
2023-05-10T15:32:35.427Z,34.63
2023-05-10T15:42:35.929Z,35.14
2023-05-10T15:52:36.409Z,35.06
2023-05-10T16:02:37.059Z,36.78
2023-05-10T16:12:37.507Z,37.79
2023-05-10T16:22:38.027Z,37.98
2023-05-10T16:32:38.548Z,39.59
2023-05-10T16:42:39.019Z,38.59
2023-05-10T16:52:39.494Z,47.31
2023-05-10T17:02:40.095Z,53.17
2023-05-10T17:12:47.662Z,56.02
2023-05-10T17:22:41.167Z,58.06
2023-05-10T17:32:41.720Z,59.29
2023-05-10T17:42:42.225Z,60.22
2023-05-10T17:52:42.901Z,61.66
2023-05-10T18:02:43.468Z,63.02
2023-05-10T18:12:43.953Z,64.43
2023-05-10T18:22:44.479Z,65.09
2023-05-10T18:32:45.012Z,65.22
2023-05-10T18:42:45.524Z,66.67
2023-05-10T18:52:46.069Z,67.57
2023-05-10T19:02:46.581Z,69.01
2023-05-10T19:12:47.138Z,70.36
2023-05-10T19:23:02.123Z,71.10
2023-05-10T19:32:49.080Z,71.84
2023-05-10T19:42:48.652Z,72.95
2023-05-10T19:52:49.341Z,73.69
2023-05-10T20:02:49.936Z,74.43
2023-05-10T20:12:50.546Z,74.63
2023-05-10T20:22:51.067Z,75.48
2023-05-10T20:32:51.658Z,75.48
2023-05-10T20:42:52.176Z,76.22
2023-05-10T20:52:52.724Z,75.81
2023-05-10T21:02:53.335Z,76.62
2023-05-10T21:12:53.864Z,77.17
2023-05-10T21:22:54.446Z,77.67
2023-05-10T21:32:55.032Z,78.52
2023-05-10T21:42:55.603Z,79.22
2023-05-10T21:52:56.135Z,79.57
2023-05-10T22:02:56.779Z,80.18
2023-05-10T22:12:57.371Z,81.02
2023-05-10T22:22:57.921Z,81.73
2023-05-10T22:32:58.521Z,81.32
2023-05-10T22:42:59.062Z,81.63
2023-05-10T22:52:59.587Z,81.83
2023-05-10T23:03:00.221Z,82.03
2023-05-10T23:13:07.730Z,82.48
2023-05-10T23:23:01.268Z,82.78
